Calgary / Springba, Alberta

10:58 PM MDT on March 25, 2017 (GMT -0600)
Springbank | | Change Station

Elev 3937 ft 51.10 °N, 114.37 °W | Updated 58 minutes ago

Clear
Clear
30 °F
Feels Like 24 °F
N
6
Wind Variable Wind from SW

Today
High -- | Low -- °F
--% Chance of Precip.
Yesterday
High -- | Low -- °F
Precip. -- in
Pressure 29.89 in
Visibility 9.0 miles
Clouds Clear
Windchill 24 °F
Dew Point 18 °F
Humidity 60%
Rainfall 0.00 in
Snow Depth Not available.
7:28 AM 7:59 PM
Waning Crescent, 5% visible
METAR CYBW 260400Z AUTO 23005KT 180V250 9SM CLR M01/M08 A2978 RMK SLP120
Pressure 29.89 in
Visibility 9.0 miles
Clouds Clear
Windchill 24 °F
Dew Point 18 °F
Humidity 60%
Rainfall 0.00 in
Snow Depth Not available.
7:28 AM 7:59 PM
Waning Crescent, 5% visible
METAR CYBW 260400Z AUTO 23005KT 180V250 9SM CLR M01/M08 A2978 RMK SLP120

Get Severe Weather Alerts

Thanks for signing up!

Be on the lookout for a verification email in your inbox.

You'll start receiving the daily forecast at 8 AM.

×

10-Day Weather Forecast

Almanac

Astronomy

Mar. 25, 2017 Rise Set
Actual Time
Civil Twilight
Nautical Twilight
Astronomical Twilight
Moon
Length of Visible Light
Length of Day
Tomorrow will be .
, % of the Moon is Illuminated

Today's Extremes

Country Highs Country Lows

Community

WunderPhotos

Upload Photos

1,962,540 photos uploaded!

WunderBlog® & News

Nearby

Air Quality

  Air Quality AQ Index Pollutant
Not available.

Snow Depth

Station Depth Elevation

Earthquake Activity

City Distance Mag. Time & Date
Minimum magnitude displayed is 2.5.

Earthquake Activity

City Distance Mag. Time & Date
Minimum magnitude displayed is 2.5.

Coastal Water Temperatures

Place Temperature

Stations

Nearby Weather Stations

Station Location Temp. Windchill Dew Point Humidity Wind Precip. Elev Updated Type
                   

Watches & Warnings

There are currently no watches in effect.